createdAt,value
2019-03-11T00:00:42.782Z,0
2019-03-11T00:03:30.559Z,0
2019-03-11T00:06:31.313Z,0
2019-03-11T00:09:30.898Z,0
2019-03-11T00:12:30.884Z,0
2019-03-11T00:15:30.620Z,0
2019-03-11T00:18:31.546Z,0
2019-03-11T00:21:31.251Z,0
2019-03-11T00:24:30.928Z,0
2019-03-11T00:27:30.766Z,0
2019-03-11T00:30:31.510Z,0
2019-03-11T00:33:31.358Z,0
2019-03-11T00:36:31.109Z,0
2019-03-11T00:39:21.808Z,0
2019-03-11T00:42:30.473Z,0
2019-03-11T00:45:31.122Z,0
2019-03-11T00:48:30.908Z,0
2019-03-11T00:51:30.931Z,0
2019-03-11T00:54:30.599Z,0
2019-03-11T00:57:31.535Z,0
2019-03-11T01:00:34.279Z,0
2019-03-11T01:03:31.037Z,0
2019-03-11T01:06:21.588Z,0
2019-03-11T01:09:31.421Z,0
2019-03-11T01:12:21.963Z,0
2019-03-11T01:15:30.722Z,0
2019-03-11T01:18:30.471Z,0
2019-03-11T01:21:31.103Z,0
2019-03-11T01:24:30.745Z,0
2019-03-11T01:27:31.395Z,0
2019-03-11T01:30:31.042Z,0
2019-03-11T01:33:30.885Z,0
2019-03-11T01:36:30.463Z,0
2019-03-11T01:39:31.031Z,0
2019-03-11T01:42:30.718Z,0
2019-03-11T01:45:31.422Z,0
2019-03-11T01:48:31.089Z,0
2019-03-11T01:51:30.781Z,0
2019-03-11T01:54:30.375Z,0
2019-03-11T01:57:30.949Z,0
2019-03-11T02:00:30.649Z,0
2019-03-11T02:03:31.281Z,0
2019-03-11T02:06:30.810Z,0
2019-03-11T02:09:30.376Z,0
2019-03-11T02:12:31.160Z,0
2019-03-11T02:15:30.861Z,0
2019-03-11T02:18:30.695Z,0
2019-03-11T02:21:31.300Z,0
2019-03-11T02:24:31.113Z,0
2019-03-11T02:27:30.755Z,0
2019-03-11T02:30:31.177Z,0
2019-03-11T02:33:30.671Z,0
2019-03-11T02:36:31.191Z,0
2019-03-11T02:39:30.736Z,0
2019-03-11T02:42:31.134Z,0
2019-03-11T02:45:30.517Z,0
2019-03-11T02:48:31.260Z,0
2019-03-11T02:51:30.777Z,0
2019-03-11T02:54:30.171Z,0
2019-03-11T02:57:30.817Z,0
2019-03-11T03:00:30.535Z,0
2019-03-11T03:03:48.496Z,0
2019-03-11T03:06:31.109Z,0
2019-03-11T03:09:34.324Z,0
2019-03-11T03:12:30.916Z,0
2019-03-11T03:15:30.620Z,0
2019-03-11T03:18:31.486Z,0
2019-03-11T03:21:31.335Z,0
2019-03-11T03:24:30.962Z,0
2019-03-11T03:27:30.557Z,0
2019-03-11T03:30:31.395Z,0
2019-03-11T03:33:30.830Z,0
2019-03-11T03:36:30.533Z,0
2019-03-11T03:39:31.235Z,0
2019-03-11T03:42:31.058Z,0
2019-03-11T03:45:34.058Z,0
2019-03-11T03:48:31.242Z,0
2019-03-11T03:51:30.954Z,0
2019-03-11T03:54:30.705Z,0
2019-03-11T03:57:31.441Z,0
2019-03-11T04:00:31.220Z,0
2019-03-11T04:03:31.122Z,0
2019-03-11T04:06:30.904Z,0
2019-03-11T04:09:30.678Z,0
2019-03-11T04:12:31.536Z,0
2019-03-11T04:15:31.194Z,0
2019-03-11T04:18:52.998Z,0
2019-03-11T04:21:30.784Z,0
2019-03-11T04:24:30.419Z,0
2019-03-11T04:27:31.305Z,0
2019-03-11T04:30:30.991Z,0
2019-03-11T04:33:30.474Z,0
2019-03-11T04:36:31.222Z,0
2019-03-11T04:39:35.780Z,0
2019-03-11T04:42:30.260Z,0
2019-03-11T04:45:30.781Z,0
2019-03-11T04:48:30.405Z,0
2019-03-11T04:51:32.558Z,0
2019-03-11T04:54:31.026Z,0
2019-03-11T04:57:30.587Z,0
2019-03-11T05:00:32.508Z,0
2019-03-11T05:03:31.014Z,0
2019-03-11T05:06:30.480Z,0
2019-03-11T05:09:30.994Z,0
2019-03-11T05:12:30.466Z,0
2019-03-11T05:15:31.166Z,0
2019-03-11T05:18:30.742Z,0
2019-03-11T05:21:31.380Z,1
2019-03-11T05:24:30.934Z,2
2019-03-11T05:27:30.508Z,2
2019-03-11T05:30:31.122Z,5
2019-03-11T05:33:30.974Z,8
2019-03-11T05:36:30.537Z,15
2019-03-11T05:39:31.228Z,24
2019-03-11T05:42:30.816Z,36
2019-03-11T05:45:30.448Z,58
2019-03-11T05:48:31.008Z,81
2019-03-11T05:51:34.462Z,92
2019-03-11T05:54:31.136Z,89
2019-03-11T05:57:30.640Z,112
2019-03-11T06:00:33.891Z,173
2019-03-11T06:03:30.890Z,255
2019-03-11T06:06:30.455Z,338
2019-03-11T06:09:31.013Z,315
2019-03-11T06:12:30.503Z,297
2019-03-11T06:15:31.063Z,332
2019-03-11T06:18:47.224Z,431
2019-03-11T06:21:39.384Z,679
2019-03-11T06:24:33.026Z,945
2019-03-11T06:27:30.490Z,1496
2019-03-11T06:30:31.053Z,1737
2019-03-11T06:33:30.642Z,1591
2019-03-11T06:36:31.211Z,1618
2019-03-11T06:39:30.755Z,3566
2019-03-11T06:42:30.433Z,4413
2019-03-11T06:45:31.223Z,5108
2019-03-11T06:48:30.846Z,5148
2019-03-11T06:51:30.575Z,5446
2019-03-11T06:54:31.018Z,5531
2019-03-11T06:57:30.914Z,6075
2019-03-11T07:00:30.753Z,6138
2019-03-11T07:03:30.306Z,2953
2019-03-11T07:06:30.838Z,7873
2019-03-11T07:09:30.523Z,7164
2019-03-11T07:12:31.036Z,7617
2019-03-11T07:15:30.644Z,7786
2019-03-11T07:18:31.484Z,8424
2019-03-11T07:21:31.120Z,7644
2019-03-11T07:24:30.773Z,5092
2019-03-11T07:27:30.511Z,10806
2019-03-11T07:30:31.141Z,4660
2019-03-11T07:33:30.920Z,9897
2019-03-11T07:36:30.470Z,10085
2019-03-11T07:39:32.611Z,10758
2019-03-11T07:42:30.442Z,10564
2019-03-11T07:45:31.119Z,11728
2019-03-11T07:48:30.710Z,14003
2019-03-11T07:51:31.268Z,14072
2019-03-11T07:54:38.555Z,6474
2019-03-11T07:57:31.556Z,14438
2019-03-11T08:00:31.198Z,5485
2019-03-11T08:03:30.665Z,13991
2019-03-11T08:06:34.474Z,16704
2019-03-11T08:09:40.563Z,14172
2019-03-11T08:12:31.232Z,8418
2019-03-11T08:15:30.943Z,29555
2019-03-11T08:18:37.802Z,30735
2019-03-11T08:21:30.594Z,29261
2019-03-11T08:24:32.278Z,34762
2019-03-11T08:27:30.695Z,38920
2019-03-11T08:30:31.356Z,28558
2019-03-11T08:33:31.145Z,38602
2019-03-11T08:36:30.740Z,38192
2019-03-11T08:39:31.264Z,9495
2019-03-11T08:42:30.794Z,8937
2019-03-11T08:45:30.592Z,6626
2019-03-11T08:48:31.248Z,7941
2019-03-11T08:51:30.960Z,6097
2019-03-11T08:54:30.888Z,10711
2019-03-11T08:57:30.677Z,8371
2019-03-11T09:00:31.283Z,10523
2019-03-11T09:03:31.066Z,9545
2019-03-11T09:06:30.632Z,14149
2019-03-11T09:09:34.000Z,13785
2019-03-11T09:12:30.607Z,9978
2019-03-11T09:15:31.321Z,5392
2019-03-11T09:18:30.984Z,4312
2019-03-11T09:21:30.735Z,5383
2019-03-11T09:24:35.134Z,7228
2019-03-11T09:27:30.946Z,7285
2019-03-11T09:30:30.608Z,10198
2019-03-11T09:33:31.359Z,26360
2019-03-11T09:36:31.005Z,33474
2019-03-11T09:39:30.639Z,41680
2019-03-11T09:42:31.398Z,18121
2019-03-11T09:45:31.261Z,54612
2019-03-11T09:48:30.886Z,15019
2019-03-11T09:51:30.558Z,29761
2019-03-11T09:54:31.162Z,14385
2019-03-11T09:57:30.900Z,8130
2019-03-11T10:00:30.582Z,9589
2019-03-11T10:03:31.153Z,6377
2019-03-11T10:06:30.820Z,8456
2019-03-11T10:09:30.697Z,4208
2019-03-11T10:12:31.246Z,5321
2019-03-11T10:15:31.059Z,7421
2019-03-11T10:18:30.797Z,4812
2019-03-11T10:21:30.498Z,4390
2019-03-11T10:24:31.285Z,3179
2019-03-11T10:27:30.937Z,2551
2019-03-11T10:30:30.629Z,2382
2019-03-11T10:33:31.449Z,2544
2019-03-11T10:36:31.445Z,2856
2019-03-11T10:39:31.370Z,3507
2019-03-11T10:42:31.021Z,3530
2019-03-11T10:45:34.689Z,5912
2019-03-11T10:48:40.008Z,4844
2019-03-11T10:51:30.870Z,3922
2019-03-11T10:54:30.659Z,3792
2019-03-11T10:57:31.431Z,3452
2019-03-11T11:00:32.161Z,4648
2019-03-11T11:03:31.067Z,4798
2019-03-11T11:06:33.054Z,2899
2019-03-11T11:09:30.735Z,3158
2019-03-11T11:12:31.559Z,3194
2019-03-11T11:15:31.459Z,4142
2019-03-11T11:18:31.347Z,5238
2019-03-11T11:21:31.266Z,14289
2019-03-11T11:24:32.223Z,17518
2019-03-11T11:27:30.915Z,10054
2019-03-11T11:30:30.888Z,8373
2019-03-11T11:33:30.924Z,8566
2019-03-11T11:36:30.883Z,8995
2019-03-11T11:39:30.844Z,7620
2019-03-11T11:42:30.581Z,5928
2019-03-11T11:45:31.634Z,5877
2019-03-11T11:48:32.837Z,5776
2019-03-11T11:51:30.754Z,4481
2019-03-11T11:54:31.603Z,5154
2019-03-11T11:57:32.719Z,4272
2019-03-11T12:00:34.101Z,3707
2019-03-11T12:03:30.744Z,3702
2019-03-11T12:06:31.506Z,4364
2019-03-11T12:09:31.251Z,3958
2019-03-11T12:12:30.894Z,6562
2019-03-11T12:15:30.692Z,5637
2019-03-11T12:18:31.537Z,3498
2019-03-11T12:21:31.105Z,4067
2019-03-11T12:24:30.843Z,6710
2019-03-11T12:27:30.551Z,6251
2019-03-11T12:30:31.471Z,7013
2019-03-11T12:33:22.968Z,5252
2019-03-11T12:36:30.829Z,7934
2019-03-11T12:39:30.934Z,6738
2019-03-11T12:42:30.770Z,5151
2019-03-11T12:45:31.766Z,3583
2019-03-11T12:48:30.633Z,3673
2019-03-11T12:51:31.629Z,3450
2019-03-11T12:54:32.207Z,4312
2019-03-11T12:57:30.913Z,3929
2019-03-11T13:00:31.117Z,3802
2019-03-11T13:03:32.317Z,4058
2019-03-11T13:06:31.399Z,5220
2019-03-11T13:09:31.315Z,2652
2019-03-11T13:12:31.121Z,2473
2019-03-11T13:15:31.033Z,1558
2019-03-11T13:18:38.001Z,1652
2019-03-11T13:21:36.128Z,4142
2019-03-11T13:24:31.055Z,6192
2019-03-11T13:27:30.905Z,8868
2019-03-11T13:30:30.623Z,6922
2019-03-11T13:33:31.334Z,6169
2019-03-11T13:36:31.112Z,7466
2019-03-11T13:39:30.914Z,6410
2019-03-11T13:42:30.867Z,6097
2019-03-11T13:45:31.088Z,6492
2019-03-11T13:48:31.000Z,5072
2019-03-11T13:51:30.831Z,4923
2019-03-11T13:54:30.937Z,4958
2019-03-11T13:57:31.005Z,4686
2019-03-11T14:01:10.999Z,3753
2019-03-11T14:03:36.488Z,4915
2019-03-11T14:06:31.510Z,5179
2019-03-11T14:09:31.353Z,3077
2019-03-11T14:12:31.152Z,4672
2019-03-11T14:15:30.906Z,5973
2019-03-11T14:18:30.769Z,4432
2019-03-11T14:21:41.118Z,4480
2019-03-11T14:24:30.881Z,5509
2019-03-11T14:27:30.787Z,5408
2019-03-11T14:30:30.576Z,5253
2019-03-11T14:33:31.316Z,4500
2019-03-11T14:36:31.083Z,2942
2019-03-11T14:39:31.109Z,6498
2019-03-11T14:42:31.223Z,7172
2019-03-11T14:45:31.013Z,3990
2019-03-11T14:48:30.727Z,5576
2019-03-11T14:51:31.562Z,7892
2019-03-11T14:54:31.456Z,4623
2019-03-11T14:57:31.099Z,4482
2019-03-11T15:00:34.219Z,5135
2019-03-11T15:03:31.203Z,3369
2019-03-11T15:06:31.010Z,3142
2019-03-11T15:09:30.947Z,4127
2019-03-11T15:12:30.918Z,4036
2019-03-11T15:15:35.864Z,3918
2019-03-11T15:18:30.718Z,3422
2019-03-11T15:21:31.706Z,4935
2019-03-11T15:24:31.297Z,2500
2019-03-11T15:27:31.364Z,2227
2019-03-11T15:30:31.226Z,2892
2019-03-11T15:33:31.152Z,3598
2019-03-11T15:36:35.873Z,4236
2019-03-11T15:39:30.674Z,3508
2019-03-11T15:42:46.310Z,3981
2019-03-11T15:45:41.462Z,3384
2019-03-11T15:48:31.246Z,4197
2019-03-11T15:51:39.538Z,1950
2019-03-11T15:54:31.247Z,2706
2019-03-11T15:57:41.687Z,2527
2019-03-11T16:00:31.680Z,1638
2019-03-11T16:03:39.025Z,2795
2019-03-11T16:06:30.906Z,1717
2019-03-11T16:09:35.616Z,2227
2019-03-11T16:12:31.427Z,1290
2019-03-11T16:15:31.395Z,1685
2019-03-11T16:18:31.311Z,1402
2019-03-11T16:21:31.190Z,1307
2019-03-11T16:24:30.994Z,869
2019-03-11T16:27:30.898Z,562
2019-03-11T16:30:30.967Z,818
2019-03-11T16:33:30.778Z,764
2019-03-11T16:36:30.703Z,912
2019-03-11T16:39:31.495Z,1042
2019-03-11T16:42:31.423Z,1157
2019-03-11T16:45:31.611Z,1115
2019-03-11T16:48:31.514Z,1552
2019-03-11T16:51:31.423Z,952
2019-03-11T16:54:31.315Z,846
2019-03-11T16:57:31.020Z,769
2019-03-11T17:00:34.800Z,722
2019-03-11T17:03:32.625Z,599
2019-03-11T17:06:30.656Z,529
2019-03-11T17:09:31.469Z,462
2019-03-11T17:12:31.664Z,378
2019-03-11T17:15:32.078Z,342
2019-03-11T17:18:30.923Z,299
2019-03-11T17:21:30.810Z,235
2019-03-11T17:24:30.729Z,188
2019-03-11T17:27:31.646Z,144
2019-03-11T17:30:31.768Z,107
2019-03-11T17:33:31.480Z,71
2019-03-11T17:36:31.403Z,46
2019-03-11T17:39:31.306Z,28
2019-03-11T17:42:33.032Z,17
2019-03-11T17:45:21.696Z,9
2019-03-11T17:48:34.390Z,5
2019-03-11T17:51:31.816Z,2
2019-03-11T17:54:30.491Z,2
2019-03-11T17:57:31.357Z,1
2019-03-11T18:00:32.677Z,0
2019-03-11T18:03:31.802Z,0
2019-03-11T18:06:30.604Z,0
2019-03-11T18:09:31.458Z,0
2019-03-11T18:12:31.236Z,0
2019-03-11T18:15:31.208Z,0
2019-03-11T18:18:35.895Z,0
2019-03-11T18:21:31.027Z,0
2019-03-11T18:24:30.880Z,0
2019-03-11T18:27:30.845Z,0
2019-03-11T18:30:30.751Z,0
2019-03-11T18:33:31.727Z,0
2019-03-11T18:36:31.727Z,0
2019-03-11T18:39:31.834Z,0
2019-03-11T18:42:41.940Z,0
2019-03-11T18:45:31.187Z,0
2019-03-11T18:48:31.215Z,0
2019-03-11T18:51:31.212Z,0
2019-03-11T18:54:31.209Z,0
2019-03-11T18:57:31.096Z,0
2019-03-11T19:00:30.933Z,0
2019-03-11T19:03:30.872Z,0
2019-03-11T19:06:30.936Z,0
2019-03-11T19:09:30.759Z,0
2019-03-11T19:12:31.624Z,0
2019-03-11T19:15:31.841Z,0
2019-03-11T19:18:30.927Z,0
2019-03-11T19:21:30.991Z,0
2019-03-11T19:24:31.282Z,0
2019-03-11T19:27:30.957Z,0
2019-03-11T19:30:30.994Z,0
2019-03-11T19:33:30.956Z,0
2019-03-11T19:36:33.511Z,0
2019-03-11T19:39:31.753Z,0
2019-03-11T19:42:31.665Z,0
2019-03-11T19:45:31.459Z,0
2019-03-11T19:48:46.174Z,0
2019-03-11T19:51:31.767Z,0
2019-03-11T19:54:31.796Z,0
2019-03-11T19:57:30.794Z,0
2019-03-11T20:00:30.849Z,0
2019-03-11T20:03:44.873Z,0
2019-03-11T20:06:30.718Z,0
2019-03-11T20:09:34.197Z,0
2019-03-11T20:12:31.485Z,0
2019-03-11T20:15:31.496Z,0
2019-03-11T20:18:31.719Z,0
2019-03-11T20:21:31.673Z,0
2019-03-11T20:24:31.585Z,0
2019-03-11T20:27:31.551Z,0
2019-03-11T20:30:31.795Z,0
2019-03-11T20:33:30.564Z,0
2019-03-11T20:36:37.226Z,0
2019-03-11T20:39:31.036Z,0
2019-03-11T20:42:33.871Z,0
2019-03-11T20:45:31.269Z,0
2019-03-11T20:48:31.298Z,0
2019-03-11T20:51:31.335Z,0
2019-03-11T20:54:33.412Z,0
2019-03-11T20:57:31.413Z,0
2019-03-11T21:00:31.728Z,0
2019-03-11T21:03:31.759Z,0
2019-03-11T21:06:31.781Z,0
2019-03-11T21:09:30.654Z,0
2019-03-11T21:12:31.681Z,0
2019-03-11T21:15:31.678Z,0
2019-03-11T21:18:31.605Z,0
2019-03-11T21:21:31.560Z,0
2019-03-11T21:24:31.501Z,0
2019-03-11T21:27:31.334Z,0
2019-03-11T21:30:31.421Z,0
2019-03-11T21:33:31.364Z,0
2019-03-11T21:36:31.722Z,0
2019-03-11T21:40:28.949Z,0
2019-03-11T21:42:30.859Z,0
2019-03-11T21:45:36.991Z,0
2019-03-11T21:48:30.896Z,0
2019-03-11T21:51:30.806Z,0
2019-03-11T21:54:30.858Z,0
2019-03-11T21:57:30.793Z,0
2019-03-11T22:00:37.050Z,0
2019-03-11T22:03:30.836Z,0
2019-03-11T22:06:33.295Z,0
2019-03-11T22:09:30.974Z,0
2019-03-11T22:12:30.656Z,0
2019-03-11T22:15:31.399Z,0
2019-03-11T22:18:31.325Z,0
2019-03-11T22:21:31.269Z,0
2019-03-11T22:24:31.115Z,0
2019-03-11T22:27:30.776Z,0
2019-03-11T22:30:30.755Z,0
2019-03-11T22:33:31.400Z,0
2019-03-11T22:36:31.102Z,0
2019-03-11T22:39:30.864Z,0
2019-03-11T22:42:30.600Z,0
2019-03-11T22:45:32.680Z,0
2019-03-11T22:48:31.407Z,0
2019-03-11T22:51:32.669Z,0
2019-03-11T22:54:31.350Z,0
2019-03-11T22:57:32.381Z,0
2019-03-11T23:00:38.806Z,0
2019-03-11T23:03:31.110Z,0
2019-03-11T23:06:30.851Z,0
2019-03-11T23:09:30.434Z,0
2019-03-11T23:12:30.980Z,0
2019-03-11T23:15:30.617Z,0
2019-03-11T23:18:31.528Z,0
2019-03-11T23:21:22.058Z,0
2019-03-11T23:24:21.690Z,0
2019-03-11T23:27:31.350Z,0
2019-03-11T23:30:31.318Z,0
2019-03-11T23:33:31.144Z,0
2019-03-11T23:36:31.162Z,0
2019-03-11T23:39:30.863Z,0
2019-03-11T23:42:30.646Z,0
2019-03-11T23:45:31.379Z,0
2019-03-11T23:48:30.969Z,0
2019-03-11T23:51:30.886Z,0
2019-03-11T23:54:30.503Z,0
2019-03-11T23:57:31.266Z,0
